Observations for AMENDOLA IT-AFB, Italy (LIBA)

LIBA 141055Z 08004KT 9999 FEW030 BKN060 14/08 Q1008 RMK BKN VIS MIN 9999 WIND THR11 08005KT WIND THR29 /////KT BLU  
LIBA 140955Z 25004KT 9999 FEW030 BKN050 13/08 Q1008 RMK OVC VIS MIN 9999 WIND THR11 28004KT WIND THR29/////KT BLU   
LIBA 140855Z VRB02KT 9999 FEW030 BKN050 12/09 Q1008 RMK OVC VIS MIN 9999 WIND THR11 VRB02KT WIND THR29/////KT BLU   
LIBA 140755Z 09002KT 9999 SCT040 BKN060 11/08 Q1008 RMK OVC VIS MIN 9999 WIND THR11 07003KT WIND THR29/////KT BLU   
LIBA 140655Z 16003KT 9999 FEW060 08/07 Q1007 RMK BKN BKN080 VIS MIN 9999 WIND THR11 17005KT WIND THR29 /////KT BLU  
LIBA 140555Z 18002KT 9999 FEW060 08/08 Q1006 RMK BKN BKN080 VIS MIN 9999 WIND THR11 18002KT WIND THR29 /////KT BLU  
LIBA 140455Z VRB01KT CAVOK 08/06 Q1006 RMK BKN SCT080 SCT200 VIS MIN 9999 WIND THR11 VRB01KT WIND THR29 /////KT BLU 
LIBA 140355Z 03003KT CAVOK 08/08 Q1006  
LIBA 140355Z 03003KT CAVOK 08/08 Q1006 RMK BKN SCT070 SCT200 VIS MIN 9999 WIND THR11 06002KT WIND THR29 /////KT BLU
LIBA 140255Z 08003KT 9999 FEW060 08/08 Q1006 RMK FEW VIS MIN 9999 WIND THR11 06005KT WIND THR29 /////KT BLU 
LIBA 140155Z 16002KT CAVOK 10/08 Q1007  
LIBA 140155Z 16002KT CAVOK 10/08 Q1007 RMK SKC VIS MIN 9999 WIND THR11 12003KT WIND THR29 /////KT BLU
LIBA 140055Z 34003KT CAVOK 10/07 Q1007  
LIBA 140055Z 34003KT CAVOK 10/07 Q1007 RMK SKC VIS MIN 9999 WIND THR11 33002KT WIND THR29 /////KT BLU
LIBA 132355Z 23004KT CAVOK 10/08 Q1007 RMK SKC VIS MIN 9999 WIND THR11 VRB2KT WIND THR29 /////KT BLU
LIBA 132255Z 24005KT CAVOK 11/08 Q1006 RMK FEW FEW070 VIS MIN 9999 WIND THR11 21007KT WIND THR29 /////KT BLU
LIBA 132155Z 26005KT CAVOK 12/08 Q1006 RMK SCT SCT070 VIS MIN 9999 WIND THR11 27004KT WIND THR29 /////KT BLU
LIBA 132055Z 23009KT CAVOK 12/07 Q1005 RMK SKC VIS MIN 9999 WIND THR11 23010KT WIND THR29 /////KT BLU   
LIBA 131955Z VRB03KT CAVOK 12/09 Q1005 RMK SCT SCT180 VIS MIN 9999 WIND THR11 21006KT WIND THR29 /////KT BLU
LIBA 131855Z VRB03KT CAVOK 12/10 Q1005  
LIBA 131855Z VRB03KT CAVOK 12/10 Q1005 RMK SCT SCT180 VIS MIN 9999 WIND THR11 VRB03KT WIND THR29 /////KT BLU
LIBA 131755Z 17004KT 9999 FEW030 13/09 Q1004 RMK SCT VIS MIN 9999 WIND THR11 17004KT WIND THR29 /////KT BLU 
LIBA 131655Z 17005KT 9999 FEW030 14/10 Q1004 RMK FEW VIS MIN 9999 WIND THR11 16006KT WIND THR29 /////KT BLU 
LIBA 131555Z 19004KT 9999 FEW030 16/13 Q1003 RMK BKN SCT070 VIS MIN 9999 WIND THR11 19007KT WIND THR29 /////KT BLU  
LIBA 131455Z 23008KT 9999 FEW030 16/12 Q1002 RMK BKN SCT070 VIS MIN 9999 WIND THR11 23011KT WIND THR29 /////KT BLU  
LIBA 131355Z 20008KT 9999 FEW030 17/12 Q1001 RMK BKN BKN070 VIS MIN 9999 WIND THR11 20010KT WIND THR29 /////KT BLU  
LIBA 131255Z 24009KT 9999 SCT030 17/11 Q1000 RMK BKN SCT070 VIS MIN 9999 WIND THR11 25011KT WIND THR29 /////KT BLU  
LIBA 131155Z 24008KT 9999 SCT025 17/11 Q1000 RMK BKN SCT100 VIS MIN 9999 WIND THR11 24009KT WIND THR29 /////KT BLU  
LIBA 131055Z 24011KT 9999 SCT025 17/11 Q0999 RMK BKN SCT100 VIS MIN 9999 WIND THR11 23012KT WIND THR29 /////KT BLU